LEMD/MAD METAR and TAF weather

Enter ICAO airport designator
Station Type Date Time Source
LEMD METAR 2019/08/19 02:00 UTC NOAA

LEMD 190200Z 07003KT 010V120 CAVOK 24/08 Q1015 NOSIG


Station Type Date Time Source
LEMD Decoded METAR 2019/08/19 02:00 UTC NOAA

Station name not available
Aug 18, 2019 - 10:00 PM EDT / 2019.08.19 0200 UTC
Wind: from the ENE (070 degrees) at 3 MPH (3 KT) (direction variable):0
Visibility: greater than 7 mile(s):0
Temperature: 75 F (24 C)
Dew Point: 46 F (8 C)
Relative Humidity: 35%
Pressure (altimeter): 29.97 in. Hg (1015 hPa)
ob: LEMD 190200Z 07003KT 010V120 CAVOK 24/08 Q1015 NOSIG
cycle: 2

Station Type Date Time Source
LEMD TAF 2019/08/18 18:30 UTC NOAA

TAF LEMD 181700Z 1818/1924 22012KT CAVOK TX35/1818Z TN16/1905Z
TEMPO 1818/1820 22015G25KT
BECMG 1821/1823 VRB05KT PROB30
TEMPO 1901/1910 04010KT
TEMPO 1911/1920 22010KT

Example: see airport list